sensor_id;sensor_type;location;lat;lon;timestamp;temperature;humidity
23291;DHT22;11814;44.686;10.842;2023-02-10T00:00:05;1.20;79.40
23291;DHT22;11814;44.686;10.842;2023-02-10T00:02:31;1.10;79.40
23291;DHT22;11814;44.686;10.842;2023-02-10T00:04:56;1.10;79.50
23291;DHT22;11814;44.686;10.842;2023-02-10T00:07:22;1.10;79.50
23291;DHT22;11814;44.686;10.842;2023-02-10T00:09:48;1.10;79.60
23291;DHT22;11814;44.686;10.842;2023-02-10T00:12:15;1.00;79.50
23291;DHT22;11814;44.686;10.842;2023-02-10T00:14:41;1.00;79.70
23291;DHT22;11814;44.686;10.842;2023-02-10T00:17:07;1.00;79.90
23291;DHT22;11814;44.686;10.842;2023-02-10T00:19:33;0.90;80.00
23291;DHT22;11814;44.686;10.842;2023-02-10T00:22:00;0.90;80.10
23291;DHT22;11814;44.686;10.842;2023-02-10T00:24:27;0.80;80.10
23291;DHT22;11814;44.686;10.842;2023-02-10T00:26:53;0.70;80.30
23291;DHT22;11814;44.686;10.842;2023-02-10T00:29:19;0.70;80.60
23291;DHT22;11814;44.686;10.842;2023-02-10T00:31:45;0.70;80.80
23291;DHT22;11814;44.686;10.842;2023-02-10T00:34:14;0.60;80.70
23291;DHT22;11814;44.686;10.842;2023-02-10T00:36:40;0.60;81.00
23291;DHT22;11814;44.686;10.842;2023-02-10T00:39:07;0.50;80.90
23291;DHT22;11814;44.686;10.842;2023-02-10T00:41:32;0.50;81.00
23291;DHT22;11814;44.686;10.842;2023-02-10T00:43:58;0.40;81.30
23291;DHT22;11814;44.686;10.842;2023-02-10T00:46:24;0.40;81.30
23291;DHT22;11814;44.686;10.842;2023-02-10T00:48:50;0.30;81.30
23291;DHT22;11814;44.686;10.842;2023-02-10T00:51:16;0.30;81.70
23291;DHT22;11814;44.686;10.842;2023-02-10T00:53:42;0.20;81.50
23291;DHT22;11814;44.686;10.842;2023-02-10T00:56:09;0.20;81.70
23291;DHT22;11814;44.686;10.842;2023-02-10T00:58:36;0.10;81.80
23291;DHT22;11814;44.686;10.842;2023-02-10T01:01:02;0.10;81.90
23291;DHT22;11814;44.686;10.842;2023-02-10T01:03:28;0.10;81.90
23291;DHT22;11814;44.686;10.842;2023-02-10T01:05:54;0.00;82.00
23291;DHT22;11814;44.686;10.842;2023-02-10T01:08:19;0.00;82.30
23291;DHT22;11814;44.686;10.842;2023-02-10T01:10:45;0.00;82.30
23291;DHT22;11814;44.686;10.842;2023-02-10T01:13:13;-0.10;82.30
23291;DHT22;11814;44.686;10.842;2023-02-10T01:15:46;-0.10;82.40
23291;DHT22;11814;44.686;10.842;2023-02-10T01:18:13;-0.20;82.60
23291;DHT22;11814;44.686;10.842;2023-02-10T01:20:40;-0.20;82.70
23291;DHT22;11814;44.686;10.842;2023-02-10T01:23:06;-0.20;82.80
23291;DHT22;11814;44.686;10.842;2023-02-10T01:25:33;-0.20;82.90
23291;DHT22;11814;44.686;10.842;2023-02-10T01:28:00;-0.30;83.00
23291;DHT22;11814;44.686;10.842;2023-02-10T01:30:26;-0.30;83.10
23291;DHT22;11814;44.686;10.842;2023-02-10T01:32:55;-0.30;83.10
23291;DHT22;11814;44.686;10.842;2023-02-10T01:35:21;-0.30;83.10
23291;DHT22;11814;44.686;10.842;2023-02-10T01:37:47;-0.30;83.10
23291;DHT22;11814;44.686;10.842;2023-02-10T01:40:13;-0.40;83.20
23291;DHT22;11814;44.686;10.842;2023-02-10T01:42:38;-0.30;83.40
23291;DHT22;11814;44.686;10.842;2023-02-10T01:45:37;-0.30;83.20
23291;DHT22;11814;44.686;10.842;2023-02-10T01:48:03;-0.30;83.40
23291;DHT22;11814;44.686;10.842;2023-02-10T01:50:50;-0.30;83.40
23291;DHT22;11814;44.686;10.842;2023-02-10T01:53:17;-0.30;83.20
23291;DHT22;11814;44.686;10.842;2023-02-10T01:55:46;-0.30;83.30
23291;DHT22;11814;44.686;10.842;2023-02-10T01:58:14;-0.30;83.30
23291;DHT22;11814;44.686;10.842;2023-02-10T02:00:40;-0.30;83.70
23291;DHT22;11814;44.686;10.842;2023-02-10T02:03:07;-0.30;84.20
23291;DHT22;11814;44.686;10.842;2023-02-10T02:05:38;-0.20;84.30
23291;DHT22;11814;44.686;10.842;2023-02-10T02:08:08;-0.20;84.50
23291;DHT22;11814;44.686;10.842;2023-02-10T02:16:05;-0.20;84.30
23291;DHT22;11814;44.686;10.842;2023-02-10T02:18:56;-0.20;84.30
23291;DHT22;11814;44.686;10.842;2023-02-10T02:32:43;-0.30;84.50
23291;DHT22;11814;44.686;10.842;2023-02-10T02:35:16;-0.30;84.50
23291;DHT22;11814;44.686;10.842;2023-02-10T02:37:44;-0.30;84.40
23291;DHT22;11814;44.686;10.842;2023-02-10T02:40:14;-0.30;84.30
23291;DHT22;11814;44.686;10.842;2023-02-10T02:42:40;-0.40;84.30
23291;DHT22;11814;44.686;10.842;2023-02-10T02:45:08;-0.50;84.20
23291;DHT22;11814;44.686;10.842;2023-02-10T02:53:03;-0.50;84.00
23291;DHT22;11814;44.686;10.842;2023-02-10T02:59:06;-0.70;83.90
23291;DHT22;11814;44.686;10.842;2023-02-10T03:01:13;-0.70;84.00
23291;DHT22;11814;44.686;10.842;2023-02-10T03:03:40;-0.80;83.80
23291;DHT22;11814;44.686;10.842;2023-02-10T03:06:06;-0.80;83.90
23291;DHT22;11814;44.686;10.842;2023-02-10T03:08:33;-0.80;84.10
23291;DHT22;11814;44.686;10.842;2023-02-10T03:10:59;-0.70;84.20
23291;DHT22;11814;44.686;10.842;2023-02-10T03:13:25;-0.80;84.00
23291;DHT22;11814;44.686;10.842;2023-02-10T03:15:51;-0.90;84.10
23291;DHT22;11814;44.686;10.842;2023-02-10T03:18:17;-0.90;84.20
23291;DHT22;11814;44.686;10.842;2023-02-10T03:20:43;-0.90;84.50
23291;DHT22;11814;44.686;10.842;2023-02-10T03:23:09;-1.00;84.50
23291;DHT22;11814;44.686;10.842;2023-02-10T03:25:35;-1.00;84.60
23291;DHT22;11814;44.686;10.842;2023-02-10T03:28:01;-1.00;84.80
23291;DHT22;11814;44.686;10.842;2023-02-10T03:30:27;-1.00;84.90
23291;DHT22;11814;44.686;10.842;2023-02-10T03:32:53;-1.00;84.90
23291;DHT22;11814;44.686;10.842;2023-02-10T03:35:20;-1.10;84.90
23291;DHT22;11814;44.686;10.842;2023-02-10T03:37:46;-1.00;85.00
23291;DHT22;11814;44.686;10.842;2023-02-10T03:40:13;-1.00;84.80
23291;DHT22;11814;44.686;10.842;2023-02-10T03:42:38;-1.00;84.90
23291;DHT22;11814;44.686;10.842;2023-02-10T03:45:04;-1.00;84.80
23291;DHT22;11814;44.686;10.842;2023-02-10T03:47:30;-1.00;84.70
23291;DHT22;11814;44.686;10.842;2023-02-10T03:49:56;-1.10;84.50
23291;DHT22;11814;44.686;10.842;2023-02-10T03:52:22;-1.10;84.80
23291;DHT22;11814;44.686;10.842;2023-02-10T03:54:47;-1.10;84.70
23291;DHT22;11814;44.686;10.842;2023-02-10T03:57:13;-1.10;84.80
23291;DHT22;11814;44.686;10.842;2023-02-10T03:59:39;-1.10;85.10
23291;DHT22;11814;44.686;10.842;2023-02-10T04:02:05;-1.10;85.20
23291;DHT22;11814;44.686;10.842;2023-02-10T04:04:30;-1.00;85.20
23291;DHT22;11814;44.686;10.842;2023-02-10T04:06:56;-1.10;85.00
23291;DHT22;11814;44.686;10.842;2023-02-10T04:09:22;-1.10;85.20
23291;DHT22;11814;44.686;10.842;2023-02-10T04:11:48;-1.00;85.50
23291;DHT22;11814;44.686;10.842;2023-02-10T04:14:14;-1.00;85.60
23291;DHT22;11814;44.686;10.842;2023-02-10T04:16:40;-1.00;86.20
23291;DHT22;11814;44.686;10.842;2023-02-10T04:19:05;-1.00;86.20
23291;DHT22;11814;44.686;10.842;2023-02-10T04:21:31;-0.90;86.50
23291;DHT22;11814;44.686;10.842;2023-02-10T04:23:57;-0.80;86.60
23291;DHT22;11814;44.686;10.842;2023-02-10T04:26:23;-0.80;86.60
23291;DHT22;11814;44.686;10.842;2023-02-10T04:28:48;-0.90;86.60
23291;DHT22;11814;44.686;10.842;2023-02-10T04:31:14;-0.90;86.70
23291;DHT22;11814;44.686;10.842;2023-02-10T04:33:40;-0.80;86.80
23291;DHT22;11814;44.686;10.842;2023-02-10T04:36:06;-0.80;86.90
23291;DHT22;11814;44.686;10.842;2023-02-10T04:38:32;-0.80;87.00
23291;DHT22;11814;44.686;10.842;2023-02-10T04:40:58;-0.80;87.00
23291;DHT22;11814;44.686;10.842;2023-02-10T04:43:24;-0.80;87.00
23291;DHT22;11814;44.686;10.842;2023-02-10T04:45:50;-0.80;87.00
23291;DHT22;11814;44.686;10.842;2023-02-10T04:48:15;-0.70;87.10
23291;DHT22;11814;44.686;10.842;2023-02-10T04:50:42;-0.70;87.00
23291;DHT22;11814;44.686;10.842;2023-02-10T04:53:08;-0.70;86.80
23291;DHT22;11814;44.686;10.842;2023-02-10T04:55:34;-0.70;86.90
23291;DHT22;11814;44.686;10.842;2023-02-10T04:58:00;-0.70;86.70
23291;DHT22;11814;44.686;10.842;2023-02-10T05:00:26;-0.60;86.50
23291;DHT22;11814;44.686;10.842;2023-02-10T05:02:52;-0.60;86.30
23291;DHT22;11814;44.686;10.842;2023-02-10T05:05:18;-0.60;86.00
23291;DHT22;11814;44.686;10.842;2023-02-10T05:07:44;-0.50;86.00
23291;DHT22;11814;44.686;10.842;2023-02-10T05:10:10;-0.50;85.90
23291;DHT22;11814;44.686;10.842;2023-02-10T05:12:36;-0.50;85.70
23291;DHT22;11814;44.686;10.842;2023-02-10T05:15:02;-0.50;85.50
23291;DHT22;11814;44.686;10.842;2023-02-10T05:17:28;-0.50;85.40
23291;DHT22;11814;44.686;10.842;2023-02-10T05:19:53;-0.50;85.20
23291;DHT22;11814;44.686;10.842;2023-02-10T05:22:19;-0.50;85.10
23291;DHT22;11814;44.686;10.842;2023-02-10T05:24:47;-0.50;84.90
23291;DHT22;11814;44.686;10.842;2023-02-10T05:27:13;-0.50;84.90
23291;DHT22;11814;44.686;10.842;2023-02-10T05:29:38;-0.50;84.80
23291;DHT22;11814;44.686;10.842;2023-02-10T05:32:04;-0.40;84.80
23291;DHT22;11814;44.686;10.842;2023-02-10T05:34:30;-0.50;84.60
23291;DHT22;11814;44.686;10.842;2023-02-10T05:36:56;-0.50;84.50
23291;DHT22;11814;44.686;10.842;2023-02-10T05:39:21;-0.50;84.40
23291;DHT22;11814;44.686;10.842;2023-02-10T05:41:54;-0.50;84.40
23291;DHT22;11814;44.686;10.842;2023-02-10T05:44:21;-0.50;84.30
23291;DHT22;11814;44.686;10.842;2023-02-10T05:46:47;-0.40;84.20
23291;DHT22;11814;44.686;10.842;2023-02-10T05:49:14;-0.40;84.00
23291;DHT22;11814;44.686;10.842;2023-02-10T05:51:40;-0.50;83.90
23291;DHT22;11814;44.686;10.842;2023-02-10T05:54:06;-0.50;83.70
23291;DHT22;11814;44.686;10.842;2023-02-10T05:56:32;-0.50;83.70
23291;DHT22;11814;44.686;10.842;2023-02-10T05:58:58;-0.60;83.60
23291;DHT22;11814;44.686;10.842;2023-02-10T06:01:23;-0.60;83.60
23291;DHT22;11814;44.686;10.842;2023-02-10T06:03:49;-0.60;83.70
23291;DHT22;11814;44.686;10.842;2023-02-10T06:06:15;-0.60;83.80
23291;DHT22;11814;44.686;10.842;2023-02-10T06:08:41;-0.70;83.80
23291;DHT22;11814;44.686;10.842;2023-02-10T06:11:07;-0.60;83.80
23291;DHT22;11814;44.686;10.842;2023-02-10T06:13:34;-0.60;83.80
23291;DHT22;11814;44.686;10.842;2023-02-10T06:15:59;-0.60;83.70
23291;DHT22;11814;44.686;10.842;2023-02-10T06:18:27;-0.60;83.50
23291;DHT22;11814;44.686;10.842;2023-02-10T06:20:53;-0.60;83.50
23291;DHT22;11814;44.686;10.842;2023-02-10T06:23:19;-0.50;83.50
23291;DHT22;11814;44.686;10.842;2023-02-10T06:25:46;-0.50;83.40
23291;DHT22;11814;44.686;10.842;2023-02-10T06:28:12;-0.50;83.30
23291;DHT22;11814;44.686;10.842;2023-02-10T06:30:40;-0.50;83.30
23291;DHT22;11814;44.686;10.842;2023-02-10T06:33:06;-0.50;83.20
23291;DHT22;11814;44.686;10.842;2023-02-10T06:35:31;-0.40;83.90
23291;DHT22;11814;44.686;10.842;2023-02-10T06:37:57;-0.40;83.10
23291;DHT22;11814;44.686;10.842;2023-02-10T06:40:23;-0.40;83.00
23291;DHT22;11814;44.686;10.842;2023-02-10T06:42:49;-0.30;83.00
23291;DHT22;11814;44.686;10.842;2023-02-10T06:45:15;-0.40;82.90
23291;DHT22;11814;44.686;10.842;2023-02-10T06:47:40;-0.30;82.80
23291;DHT22;11814;44.686;10.842;2023-02-10T06:50:06;-0.30;82.90
23291;DHT22;11814;44.686;10.842;2023-02-10T06:52:32;-0.30;82.90
23291;DHT22;11814;44.686;10.842;2023-02-10T06:55:00;-0.30;82.80
23291;DHT22;11814;44.686;10.842;2023-02-10T06:57:26;-0.30;82.80
23291;DHT22;11814;44.686;10.842;2023-02-10T06:59:52;-0.30;82.70
23291;DHT22;11814;44.686;10.842;2023-02-10T07:02:18;-0.30;82.60
23291;DHT22;11814;44.686;10.842;2023-02-10T07:04:44;-0.30;82.70
23291;DHT22;11814;44.686;10.842;2023-02-10T07:07:10;-0.20;82.90
23291;DHT22;11814;44.686;10.842;2023-02-10T07:09:35;0.30;83.10
23291;DHT22;11814;44.686;10.842;2023-02-10T07:12:03;0.70;82.90
23291;DHT22;11814;44.686;10.842;2023-02-10T07:14:28;1.20;82.20
23291;DHT22;11814;44.686;10.842;2023-02-10T07:16:54;1.60;81.10
23291;DHT22;11814;44.686;10.842;2023-02-10T07:19:20;1.70;80.20
23291;DHT22;11814;44.686;10.842;2023-02-10T07:21:45;1.70;79.80
23291;DHT22;11814;44.686;10.842;2023-02-10T07:24:11;1.70;79.40
23291;DHT22;11814;44.686;10.842;2023-02-10T07:26:37;1.70;79.20
23291;DHT22;11814;44.686;10.842;2023-02-10T07:29:03;1.70;79.00
23291;DHT22;11814;44.686;10.842;2023-02-10T07:31:28;1.70;78.90
23291;DHT22;11814;44.686;10.842;2023-02-10T07:33:54;1.80;79.10
23291;DHT22;11814;44.686;10.842;2023-02-10T07:36:20;2.00;78.80
23291;DHT22;11814;44.686;10.842;2023-02-10T07:38:46;2.20;78.50
23291;DHT22;11814;44.686;10.842;2023-02-10T07:41:11;2.40;78.10
23291;DHT22;11814;44.686;10.842;2023-02-10T07:43:37;2.40;78.00
23291;DHT22;11814;44.686;10.842;2023-02-10T07:46:03;2.80;78.20
23291;DHT22;11814;44.686;10.842;2023-02-10T07:48:29;3.00;77.70
23291;DHT22;11814;44.686;10.842;2023-02-10T07:50:54;3.10;77.00
23291;DHT22;11814;44.686;10.842;2023-02-10T07:53:21;3.30;76.90
23291;DHT22;11814;44.686;10.842;2023-02-10T07:55:47;3.70;76.70
23291;DHT22;11814;44.686;10.842;2023-02-10T07:58:13;4.10;76.00
23291;DHT22;11814;44.686;10.842;2023-02-10T08:00:39;4.30;75.00
23291;DHT22;11814;44.686;10.842;2023-02-10T08:03:05;4.30;74.60
23291;DHT22;11814;44.686;10.842;2023-02-10T08:05:31;4.30;74.40
23291;DHT22;11814;44.686;10.842;2023-02-10T08:07:57;4.40;74.20
23291;DHT22;11814;44.686;10.842;2023-02-10T08:10:23;4.30;73.80
23291;DHT22;11814;44.686;10.842;2023-02-10T08:12:48;4.30;73.40
23291;DHT22;11814;44.686;10.842;2023-02-10T08:15:14;4.20;73.20
23291;DHT22;11814;44.686;10.842;2023-02-10T08:17:44;4.10;72.80
23291;DHT22;11814;44.686;10.842;2023-02-10T08:20:10;4.00;72.90
23291;DHT22;11814;44.686;10.842;2023-02-10T08:22:36;4.00;72.80
23291;DHT22;11814;44.686;10.842;2023-02-10T08:25:02;4.20;73.40
23291;DHT22;11814;44.686;10.842;2023-02-10T08:27:28;4.50;73.90
23291;DHT22;11814;44.686;10.842;2023-02-10T08:29:55;4.80;73.50
23291;DHT22;11814;44.686;10.842;2023-02-10T08:32:21;5.20;73.10
23291;DHT22;11814;44.686;10.842;2023-02-10T08:34:48;5.30;72.30
23291;DHT22;11814;44.686;10.842;2023-02-10T08:37:15;5.40;71.80
23291;DHT22;11814;44.686;10.842;2023-02-10T08:39:41;5.40;71.70
23291;DHT22;11814;44.686;10.842;2023-02-10T08:42:07;5.40;71.70
23291;DHT22;11814;44.686;10.842;2023-02-10T08:44:33;5.40;72.60
23291;DHT22;11814;44.686;10.842;2023-02-10T08:46:59;5.40;72.10
23291;DHT22;11814;44.686;10.842;2023-02-10T08:49:25;5.40;72.20
23291;DHT22;11814;44.686;10.842;2023-02-10T08:51:51;5.50;72.30
23291;DHT22;11814;44.686;10.842;2023-02-10T08:54:18;5.50;72.30
23291;DHT22;11814;44.686;10.842;2023-02-10T08:56:44;5.50;72.20
23291;DHT22;11814;44.686;10.842;2023-02-10T08:59:10;5.50;72.20
23291;DHT22;11814;44.686;10.842;2023-02-10T09:01:35;5.50;72.20
23291;DHT22;11814;44.686;10.842;2023-02-10T09:04:01;5.60;72.40
23291;DHT22;11814;44.686;10.842;2023-02-10T09:06:31;5.60;72.20
23291;DHT22;11814;44.686;10.842;2023-02-10T09:08:58;5.60;72.10
23291;DHT22;11814;44.686;10.842;2023-02-10T09:11:25;5.90;73.00
23291;DHT22;11814;44.686;10.842;2023-02-10T09:13:52;6.50;74.00
23291;DHT22;11814;44.686;10.842;2023-02-10T09:16:19;7.10;73.30
23291;DHT22;11814;44.686;10.842;2023-02-10T09:18:45;7.60;71.70
23291;DHT22;11814;44.686;10.842;2023-02-10T09:21:11;8.10;70.40
23291;DHT22;11814;44.686;10.842;2023-02-10T09:23:37;8.60;69.50
23291;DHT22;11814;44.686;10.842;2023-02-10T09:26:03;9.20;68.70
23291;DHT22;11814;44.686;10.842;2023-02-10T09:28:29;9.90;67.70
23291;DHT22;11814;44.686;10.842;2023-02-10T09:30:55;10.90;66.40
23291;DHT22;11814;44.686;10.842;2023-02-10T09:33:21;11.90;64.80
23291;DHT22;11814;44.686;10.842;2023-02-10T09:35:47;12.90;62.50
23291;DHT22;11814;44.686;10.842;2023-02-10T09:38:13;13.70;60.20
23291;DHT22;11814;44.686;10.842;2023-02-10T09:46:34;15.30;54.10
23291;DHT22;11814;44.686;10.842;2023-02-10T09:54:13;14.80;50.90
23291;DHT22;11814;44.686;10.842;2023-02-10T09:56:41;14.20;50.60
23291;DHT22;11814;44.686;10.842;2023-02-10T09:59:12;13.80;50.50
23291;DHT22;11814;44.686;10.842;2023-02-10T10:01:43;13.30;50.40
23291;DHT22;11814;44.686;10.842;2023-02-10T10:04:14;13.10;51.30
23291;DHT22;11814;44.686;10.842;2023-02-10T10:06:43;13.20;51.70
23291;DHT22;11814;44.686;10.842;2023-02-10T10:14:33;13.30;50.70
23291;DHT22;11814;44.686;10.842;2023-02-10T10:25:48;11.70;51.60
23291;DHT22;11814;44.686;10.842;2023-02-10T10:31:18;10.90;52.10
23291;DHT22;11814;44.686;10.842;2023-02-10T10:36:43;10.40;52.80
23291;DHT22;11814;44.686;10.842;2023-02-10T10:39:38;10.10;53.10
23291;DHT22;11814;44.686;10.842;2023-02-10T10:45:33;9.90;54.00
23291;DHT22;11814;44.686;10.842;2023-02-10T10:48:11;9.90;54.10
23291;DHT22;11814;44.686;10.842;2023-02-10T10:50:38;10.10;54.30
23291;DHT22;11814;44.686;10.842;2023-02-10T10:55:56;11.00;54.20
23291;DHT22;11814;44.686;10.842;2023-02-10T10:58:39;11.60;54.00
23291;DHT22;11814;44.686;10.842;2023-02-10T11:01:06;11.80;53.00
23291;DHT22;11814;44.686;10.842;2023-02-10T11:03:33;11.70;52.30
23291;DHT22;11814;44.686;10.842;2023-02-10T11:06:13;11.40;51.90
23291;DHT22;11814;44.686;10.842;2023-02-10T11:11:13;10.90;52.20
23291;DHT22;11814;44.686;10.842;2023-02-10T11:13:47;10.70;52.40
23291;DHT22;11814;44.686;10.842;2023-02-10T11:16:14;10.50;52.90
23291;DHT22;11814;44.686;10.842;2023-02-10T11:18:55;10.40;53.10
23291;DHT22;11814;44.686;10.842;2023-02-10T11:21:31;10.40;53.20
23291;DHT22;11814;44.686;10.842;2023-02-10T11:23:57;10.30;53.40
23291;DHT22;11814;44.686;10.842;2023-02-10T11:26:25;10.30;53.80
23291;DHT22;11814;44.686;10.842;2023-02-10T11:28:53;10.20;53.80
23291;DHT22;11814;44.686;10.842;2023-02-10T11:34:02;10.30;53.90
23291;DHT22;11814;44.686;10.842;2023-02-10T11:36:33;10.50;54.30
23291;DHT22;11814;44.686;10.842;2023-02-10T11:39:04;10.80;53.90
23291;DHT22;11814;44.686;10.842;2023-02-10T11:41:31;11.50;53.30
23291;DHT22;11814;44.686;10.842;2023-02-10T11:43:59;12.00;52.80
23291;DHT22;11814;44.686;10.842;2023-02-10T11:46:28;12.00;51.90
23291;DHT22;11814;44.686;10.842;2023-02-10T11:49:00;11.90;51.70
23291;DHT22;11814;44.686;10.842;2023-02-10T11:51:28;11.80;51.60
23291;DHT22;11814;44.686;10.842;2023-02-10T11:53:56;11.70;51.50
23291;DHT22;11814;44.686;10.842;2023-02-10T12:05:33;11.50;51.00
23291;DHT22;11814;44.686;10.842;2023-02-10T12:10:45;11.30;51.10
23291;DHT22;11814;44.686;10.842;2023-02-10T12:26:58;11.20;51.20
23291;DHT22;11814;44.686;10.842;2023-02-10T12:30:05;11.20;51.10
23291;DHT22;11814;44.686;10.842;2023-02-10T12:32:59;11.20;51.20
23291;DHT22;11814;44.686;10.842;2023-02-10T12:35:41;11.10;51.30
23291;DHT22;11814;44.686;10.842;2023-02-10T12:52:16;11.10;52.00
23291;DHT22;11814;44.686;10.842;2023-02-10T12:54:48;11.10;52.20
23291;DHT22;11814;44.686;10.842;2023-02-10T12:57:29;11.00;52.20
23291;DHT22;11814;44.686;10.842;2023-02-10T13:00:05;11.00;52.20
23291;DHT22;11814;44.686;10.842;2023-02-10T13:02:42;10.90;52.50
23291;DHT22;11814;44.686;10.842;2023-02-10T13:05:12;11.00;52.70
23291;DHT22;11814;44.686;10.842;2023-02-10T13:07:51;11.00;52.70
23291;DHT22;11814;44.686;10.842;2023-02-10T13:13:00;10.90;52.30
23291;DHT22;11814;44.686;10.842;2023-02-10T13:15:41;10.90;52.10
23291;DHT22;11814;44.686;10.842;2023-02-10T13:18:30;10.90;52.30
23291;DHT22;11814;44.686;10.842;2023-02-10T13:21:19;10.90;52.30
23291;DHT22;11814;44.686;10.842;2023-02-10T13:23:53;10.90;52.20
23291;DHT22;11814;44.686;10.842;2023-02-10T13:29:55;10.90;52.20
23291;DHT22;11814;44.686;10.842;2023-02-10T13:35:06;10.80;51.90
23291;DHT22;11814;44.686;10.842;2023-02-10T13:37:54;10.80;51.60
23291;DHT22;11814;44.686;10.842;2023-02-10T13:40:48;10.70;51.60
23291;DHT22;11814;44.686;10.842;2023-02-10T13:43:33;10.80;51.80
23291;DHT22;11814;44.686;10.842;2023-02-10T13:46:00;10.70;52.10
23291;DHT22;11814;44.686;10.842;2023-02-10T13:48:32;10.80;52.40
23291;DHT22;11814;44.686;10.842;2023-02-10T13:51:07;10.70;52.10
23291;DHT22;11814;44.686;10.842;2023-02-10T13:56:14;10.70;51.60
23291;DHT22;11814;44.686;10.842;2023-02-10T13:59:27;10.60;51.60
23291;DHT22;11814;44.686;10.842;2023-02-10T14:04:41;10.60;51.90
23291;DHT22;11814;44.686;10.842;2023-02-10T14:07:32;10.60;51.70
23291;DHT22;11814;44.686;10.842;2023-02-10T14:10:25;10.60;51.40
23291;DHT22;11814;44.686;10.842;2023-02-10T14:13:19;10.60;51.40
23291;DHT22;11814;44.686;10.842;2023-02-10T14:15:56;10.60;51.80
23291;DHT22;11814;44.686;10.842;2023-02-10T14:18:25;10.50;51.60
23291;DHT22;11814;44.686;10.842;2023-02-10T14:21:04;10.40;50.90
23291;DHT22;11814;44.686;10.842;2023-02-10T14:23:34;10.40;50.70
23291;DHT22;11814;44.686;10.842;2023-02-10T14:26:04;10.30;51.00
23291;DHT22;11814;44.686;10.842;2023-02-10T14:28:35;10.30;51.50
23291;DHT22;11814;44.686;10.842;2023-02-10T14:31:17;10.30;51.60
23291;DHT22;11814;44.686;10.842;2023-02-10T14:33:53;10.30;51.90
23291;DHT22;11814;44.686;10.842;2023-02-10T14:36:19;10.30;52.00
23291;DHT22;11814;44.686;10.842;2023-02-10T14:38:52;10.30;52.00
23291;DHT22;11814;44.686;10.842;2023-02-10T14:41:19;10.30;52.00
23291;DHT22;11814;44.686;10.842;2023-02-10T14:43:46;10.20;52.00
23291;DHT22;11814;44.686;10.842;2023-02-10T14:46:26;10.20;51.60
23291;DHT22;11814;44.686;10.842;2023-02-10T14:49:02;10.20;51.40
23291;DHT22;11814;44.686;10.842;2023-02-10T14:51:30;10.20;51.70
23291;DHT22;11814;44.686;10.842;2023-02-10T14:54:06;10.20;51.90
23291;DHT22;11814;44.686;10.842;2023-02-10T14:56:32;10.10;51.90
23291;DHT22;11814;44.686;10.842;2023-02-10T14:58:58;10.10;51.40
23291;DHT22;11814;44.686;10.842;2023-02-10T15:01:30;10.00;51.30
23291;DHT22;11814;44.686;10.842;2023-02-10T15:03:58;10.00;51.40
23291;DHT22;11814;44.686;10.842;2023-02-10T15:06:27;10.00;51.60
23291;DHT22;11814;44.686;10.842;2023-02-10T15:09:03;9.90;51.80
23291;DHT22;11814;44.686;10.842;2023-02-10T15:11:40;9.90;52.00
23291;DHT22;11814;44.686;10.842;2023-02-10T15:14:29;9.90;52.10
23291;DHT22;11814;44.686;10.842;2023-02-10T15:16:58;9.80;52.00
23291;DHT22;11814;44.686;10.842;2023-02-10T15:19:24;9.70;51.60
23291;DHT22;11814;44.686;10.842;2023-02-10T15:21:50;9.70;51.70
23291;DHT22;11814;44.686;10.842;2023-02-10T15:24:32;9.70;51.90
23291;DHT22;11814;44.686;10.842;2023-02-10T15:27:22;9.70;52.20
23291;DHT22;11814;44.686;10.842;2023-02-10T15:29:48;9.70;52.40
23291;DHT22;11814;44.686;10.842;2023-02-10T15:32:17;9.60;52.40
23291;DHT22;11814;44.686;10.842;2023-02-10T15:34:43;9.60;52.50
23291;DHT22;11814;44.686;10.842;2023-02-10T15:37:21;9.60;52.50
23291;DHT22;11814;44.686;10.842;2023-02-10T15:39:58;9.50;52.40
23291;DHT22;11814;44.686;10.842;2023-02-10T15:42:31;9.40;52.20
23291;DHT22;11814;44.686;10.842;2023-02-10T15:45:13;9.40;52.30
23291;DHT22;11814;44.686;10.842;2023-02-10T15:50:09;9.30;52.60
23291;DHT22;11814;44.686;10.842;2023-02-10T15:52:48;9.20;52.80
23291;DHT22;11814;44.686;10.842;2023-02-10T15:55:35;9.20;52.90
23291;DHT22;11814;44.686;10.842;2023-02-10T15:58:02;9.10;52.80
23291;DHT22;11814;44.686;10.842;2023-02-10T16:00:31;9.10;52.80
23291;DHT22;11814;44.686;10.842;2023-02-10T16:02:57;9.00;52.90
23291;DHT22;11814;44.686;10.842;2023-02-10T16:05:24;9.00;53.00
23291;DHT22;11814;44.686;10.842;2023-02-10T16:07:51;8.90;53.40
23291;DHT22;11814;44.686;10.842;2023-02-10T16:10:24;8.90;53.70
23291;DHT22;11814;44.686;10.842;2023-02-10T16:12:51;8.80;54.10
23291;DHT22;11814;44.686;10.842;2023-02-10T16:15:20;8.70;54.30
23291;DHT22;11814;44.686;10.842;2023-02-10T16:17:51;8.60;54.50
23291;DHT22;11814;44.686;10.842;2023-02-10T16:20:23;8.60;54.80
23291;DHT22;11814;44.686;10.842;2023-02-10T16:22:50;8.50;55.20
23291;DHT22;11814;44.686;10.842;2023-02-10T16:25:17;8.40;55.50
23291;DHT22;11814;44.686;10.842;2023-02-10T16:27:43;8.40;55.70
23291;DHT22;11814;44.686;10.842;2023-02-10T16:30:35;8.30;55.80
23291;DHT22;11814;44.686;10.842;2023-02-10T16:33:01;8.10;56.30
23291;DHT22;11814;44.686;10.842;2023-02-10T16:35:27;8.00;56.60
23291;DHT22;11814;44.686;10.842;2023-02-10T16:37:53;8.00;56.70
23291;DHT22;11814;44.686;10.842;2023-02-10T16:40:29;7.90;56.80
23291;DHT22;11814;44.686;10.842;2023-02-10T16:42:55;7.80;56.80
23291;DHT22;11814;44.686;10.842;2023-02-10T16:45:23;7.80;56.90
23291;DHT22;11814;44.686;10.842;2023-02-10T16:47:49;7.70;57.20
23291;DHT22;11814;44.686;10.842;2023-02-10T16:50:33;7.60;57.30
23291;DHT22;11814;44.686;10.842;2023-02-10T16:52:59;7.50;57.40
23291;DHT22;11814;44.686;10.842;2023-02-10T16:55:25;7.40;57.70
23291;DHT22;11814;44.686;10.842;2023-02-10T16:57:52;7.30;57.80
23291;DHT22;11814;44.686;10.842;2023-02-10T17:00:20;7.20;58.20
23291;DHT22;11814;44.686;10.842;2023-02-10T17:02:47;7.10;58.60
23291;DHT22;11814;44.686;10.842;2023-02-10T17:05:13;7.10;59.00
23291;DHT22;11814;44.686;10.842;2023-02-10T17:07:39;7.00;59.20
23291;DHT22;11814;44.686;10.842;2023-02-10T17:10:08;6.90;59.30
23291;DHT22;11814;44.686;10.842;2023-02-10T17:12:37;6.90;59.60
23291;DHT22;11814;44.686;10.842;2023-02-10T17:15:03;6.80;59.60
23291;DHT22;11814;44.686;10.842;2023-02-10T17:17:28;6.80;59.90
23291;DHT22;11814;44.686;10.842;2023-02-10T17:19:54;6.70;60.00
23291;DHT22;11814;44.686;10.842;2023-02-10T17:22:20;6.60;60.90
23291;DHT22;11814;44.686;10.842;2023-02-10T17:24:46;6.60;60.40
23291;DHT22;11814;44.686;10.842;2023-02-10T17:27:11;6.50;60.40
23291;DHT22;11814;44.686;10.842;2023-02-10T17:29:37;6.40;60.40
23291;DHT22;11814;44.686;10.842;2023-02-10T17:32:03;6.30;60.60
23291;DHT22;11814;44.686;10.842;2023-02-10T17:34:29;6.30;60.90
23291;DHT22;11814;44.686;10.842;2023-02-10T17:37:01;6.20;61.00